Time;durP1;ratioP1;P1;durP2;ratioP2;P2;SDS_P1;SDS_P2;PMS_P1;PMS_P2;Temp;Humidity;BMP_temperature;BMP_pressure;BME280_temperature;BME280_humidity;BME280_pressure;Samples;Min_cycle;Max_cycle;Signal;HPM_P1;HPM_P2
2023/05/08 00:00:43;;;;;;;9.00;8.10;;;14.40;51.90;;;;;;7365310;19;20049;-74
2023/05/08 00:03:13;;;;;;;10.50;8.50;;;14.40;51.80;;;;;;7367819;19;20036;-74
2023/05/08 00:05:43;;;;;;;8.70;7.88;;;14.40;52.10;;;;;;7368084;19;20378;-74
2023/05/08 00:08:16;;;;;;;8.68;7.70;;;14.40;52.70;;;;;;7368113;19;20096;-73
2023/05/08 00:10:45;;;;;;;10.43;8.05;;;14.40;53.30;;;;;;7386683;19;20018;-74
2023/05/08 00:13:15;;;;;;;11.82;8.75;;;14.40;53.40;;;;;;7366549;19;20398;-74
2023/05/08 00:15:45;;;;;;;11.52;8.80;;;14.40;53.30;;;;;;7367189;19;20509;-74
2023/05/08 00:18:15;;;;;;;9.68;8.65;;;14.50;53.50;;;;;;7365418;19;20014;-73
2023/05/08 00:20:45;;;;;;;13.27;8.07;;;14.40;53.30;;;;;;7364842;19;20011;-74
2023/05/08 00:23:18;;;;;;;11.13;8.00;;;14.50;53.50;;;;;;7368334;19;20015;-73
2023/05/08 00:25:48;;;;;;;13.75;8.52;;;14.60;54.10;;;;;;7397056;19;20020;-74
2023/05/08 00:28:17;;;;;;;9.00;7.70;;;14.60;53.70;;;;;;7373418;19;20436;-74
2023/05/08 00:30:48;;;;;;;9.35;8.00;;;14.60;53.60;;;;;;7372177;19;20054;-75
2023/05/08 00:33:18;;;;;;;8.15;7.32;;;14.70;53.60;;;;;;7373478;19;20435;-74
2023/05/08 00:35:48;;;;;;;8.27;7.40;;;14.60;52.70;;;;;;7375329;19;20018;-73
2023/05/08 00:38:20;;;;;;;7.65;6.85;;;14.60;52.50;;;;;;7374363;19;20007;-74
2023/05/08 00:40:50;;;;;;;7.63;6.75;;;14.60;51.60;;;;;;7392332;19;20014;-74
2023/05/08 00:43:24;;;;;;;7.40;6.63;;;14.60;51.60;;;;;;7372976;19;20078;-74
2023/05/08 00:45:54;;;;;;;8.00;6.70;;;14.50;51.00;;;;;;7373963;19;20010;-75
2023/05/08 00:48:26;;;;;;;7.20;6.50;;;14.60;51.00;;;;;;7372360;19;20015;-74
2023/05/08 00:50:56;;;;;;;9.13;6.57;;;14.60;51.10;;;;;;7370674;19;20007;-75
2023/05/08 00:53:30;;;;;;;7.03;6.32;;;14.70;52.00;;;;;;7371713;19;20014;-75
2023/05/08 00:56:01;;;;;;;6.88;6.22;;;14.70;50.70;;;;;;7395769;19;20010;-74
2023/05/08 00:58:34;;;;;;;6.80;6.10;;;14.70;50.30;;;;;;7373539;19;20006;-74
2023/05/08 01:01:04;;;;;;;7.45;6.50;;;14.70;50.00;;;;;;7370544;19;20010;-76
2023/05/08 01:03:37;;;;;;;7.47;6.63;;;14.70;50.20;;;;;;7371329;19;20019;-74
2023/05/08 01:06:08;;;;;;;8.35;6.45;;;14.70;50.30;;;;;;7373625;19;20034;-74
2023/05/08 01:08:41;;;;;;;8.70;6.90;;;14.60;49.50;;;;;;7373739;19;20047;-75
2023/05/08 01:11:23;;;;;;;9.00;6.90;;;14.70;50.10;;;;;;7369305;19;20014;-74
2023/05/08 01:14:01;;;;;;;7.35;6.57;;;14.70;50.90;;;;;;7393293;19;20014;-74
2023/05/08 01:16:43;;;;;;;11.65;8.35;;;14.70;51.70;;;;;;7373513;19;20010;-75
2023/05/08 01:19:54;;;;;;;11.75;10.05;;;14.60;51.40;;;;;;7371020;19;20007;-74
2023/05/08 01:22:50;;;;;;;13.27;11.65;;;14.60;52.30;;;;;;7371267;19;20028;-74
2023/05/08 01:25:57;;;;;;;14.77;12.15;;;14.60;51.50;;;;;;7370353;19;20014;-75
2023/05/08 01:29:09;;;;;;;16.80;13.40;;;14.70;52.60;;;;;;7371920;19;20007;-74
2023/05/08 01:31:53;;;;;;;11.57;10.38;;;14.60;52.10;;;;;;7370479;19;20676;-72
2023/05/08 01:34:28;;;;;;;12.65;10.63;;;14.60;51.90;;;;;;7371696;19;20463;-73
2023/05/08 01:37:02;;;;;;;11.23;9.52;;;14.60;52.50;;;;;;7371991;19;20017;-74
2023/05/08 01:39:38;;;;;;;11.20;9.32;;;14.60;53.20;;;;;;7371080;19;20030;-74
2023/05/08 01:42:15;;;;;;;14.55;11.95;;;14.50;53.50;;;;;;7369009;19;20017;-75
2023/05/08 01:44:48;;;;;;;13.63;11.10;;;14.50;53.70;;;;;;7372360;19;20372;-75
2023/05/08 01:47:21;;;;;;;14.52;12.20;;;14.50;54.40;;;;;;7372482;19;20023;-74
2023/05/08 01:50:14;;;;;;;12.85;11.30;;;14.50;55.00;;;;;;7392856;19;20021;-75
2023/05/08 01:52:47;;;;;;;15.02;11.30;;;14.50;55.60;;;;;;7371950;19;20014;-75
2023/05/08 01:55:23;;;;;;;13.90;11.80;;;14.40;55.90;;;;;;7371334;19;20014;-74
2023/05/08 01:57:57;;;;;;;13.65;12.15;;;14.50;56.80;;;;;;7371789;19;20006;-74
2023/05/08 02:00:28;;;;;;;13.93;12.38;;;14.40;57.10;;;;;;7370105;19;20131;-74
2023/05/08 02:02:59;;;;;;;15.40;12.52;;;14.40;57.50;;;;;;7371473;19;20011;-74
2023/05/08 02:05:33;;;;;;;13.93;11.95;;;14.40;57.50;;;;;;7369538;19;20102;-73
2023/05/08 02:08:03;;;;;;;14.90;12.43;;;14.40;58.30;;;;;;7393548;19;20006;-74
2023/05/08 02:10:34;;;;;;;14.70;11.98;;;14.40;58.70;;;;;;7367205;19;20281;-75
2023/05/08 02:13:05;;;;;;;14.27;12.23;;;14.30;59.60;;;;;;7369848;19;20017;-73
2023/05/08 02:15:38;;;;;;;16.88;13.20;;;14.30;61.00;;;;;;7370191;19;20027;-73
2023/05/08 02:18:11;;;;;;;14.98;12.27;;;14.30;61.10;;;;;;7370735;19;20010;-73
2023/05/08 02:20:44;;;;;;;16.92;12.90;;;14.30;61.40;;;;;;7366806;19;20029;-73
2023/05/08 02:23:15;;;;;;;14.90;13.25;;;14.30;61.60;;;;;;7371158;19;20006;-74
2023/05/08 02:25:47;;;;;;;14.98;13.25;;;14.30;62.60;;;;;;7390542;19;20035;-74
2023/05/08 02:28:18;;;;;;;16.42;13.32;;;14.30;63.00;;;;;;7370395;19;20115;-74
2023/05/08 02:30:48;;;;;;;14.60;12.98;;;14.30;63.70;;;;;;7367837;19;20122;-74
2023/05/08 02:33:19;;;;;;;16.00;13.18;;;14.30;64.50;;;;;;7368984;19;20459;-74
2023/05/08 02:35:53;;;;;;;14.43;12.88;;;14.30;64.80;;;;;;7371264;19;20019;-74
2023/05/08 02:38:25;;;;;;;17.00;13.20;;;14.20;64.80;;;;;;7372597;19;20006;-74
2023/05/08 02:40:58;;;;;;;14.57;13.02;;;14.20;64.90;;;;;;7395519;19;20038;-73
2023/05/08 02:43:28;;;;;;;15.43;12.82;;;14.20;65.60;;;;;;7373958;19;20022;-70
2023/05/08 02:46:08;;;;;;;15.45;13.65;;;14.10;65.50;;;;;;7368361;19;20011;-74
2023/05/08 02:48:42;;;;;;;14.90;12.73;;;14.10;66.00;;;;;;7370349;19;20007;-74
2023/05/08 02:51:20;;;;;;;15.60;13.90;;;14.20;67.30;;;;;;7366478;19;20017;-74
2023/05/08 02:53:56;;;;;;;16.42;14.10;;;14.20;67.60;;;;;;7370296;19;20007;-74
2023/05/08 02:56:35;;;;;;;16.17;13.13;;;14.20;67.80;;;;;;7369204;19;20014;-74
2023/05/08 02:59:15;;;;;;;16.55;14.75;;;14.20;68.10;;;;;;7369392;19;20047;-73
2023/05/08 03:01:52;;;;;;;16.17;14.02;;;14.20;67.90;;;;;;7389494;19;20018;-74
2023/05/08 03:04:28;;;;;;;17.10;14.85;;;14.20;68.10;;;;;;7369236;19;20023;-73
2023/05/08 03:07:01;;;;;;;18.50;15.32;;;14.20;68.20;;;;;;7367274;19;20022;-74
2023/05/08 03:09:41;;;;;;;19.95;15.65;;;14.20;68.50;;;;;;7368452;19;20010;-74
2023/05/08 03:12:15;;;;;;;21.83;17.02;;;14.20;68.80;;;;;;7367917;19;20081;-74
2023/05/08 03:14:53;;;;;;;22.88;17.33;;;14.20;69.20;;;;;;7368921;19;20003;-74
2023/05/08 03:17:25;;;;;;;20.58;16.83;;;14.20;69.30;;;;;;7369208;19;20011;-72
2023/05/08 03:20:00;;;;;;;25.58;19.95;;;14.20;69.60;;;;;;7388532;19;20074;-73
2023/05/08 03:22:34;;;;;;;;;;;14.20;69.60;;;;;;7369136;19;20026;-74
2023/05/08 03:25:06;;;;;;;26.80;20.15;;;14.20;69.60;;;;;;7367360;19;19950;-74
2023/05/08 03:27:37;;;;;;;26.25;19.95;;;14.20;69.80;;;;;;7368364;19;20046;-73
2023/05/08 03:30:08;;;;;;;25.15;19.83;;;14.20;70.00;;;;;;7365930;19;20383;-74
2023/05/08 03:32:39;;;;;;;26.52;19.52;;;14.20;70.20;;;;;;7367964;19;20010;-73
2023/05/08 03:35:11;;;;;;;25.42;18.95;;;14.20;70.30;;;;;;7367928;19;20018;-73
2023/05/08 03:37:44;;;;;;;23.88;18.58;;;14.20;70.60;;;;;;7390667;19;20043;-74
2023/05/08 03:40:14;;;;;;;27.95;19.40;;;14.20;70.70;;;;;;7364308;19;20022;-74
2023/05/08 03:42:45;;;;;;;26.63;19.75;;;14.10;70.60;;;;;;7368206;19;20010;-74
2023/05/08 03:45:17;;;;;;;25.55;19.85;;;14.10;71.00;;;;;;7366932;19;20028;-74
2023/05/08 03:47:49;;;;;;;22.73;18.00;;;14.20;71.30;;;;;;7369345;19;20364;-72
2023/05/08 03:50:19;;;;;;;23.90;19.38;;;14.20;71.50;;;;;;7365102;19;20014;-72
2023/05/08 03:52:52;;;;;;;23.67;18.50;;;14.20;71.50;;;;;;7390284;19;20010;-72
2023/05/08 03:55:22;;;;;;;22.67;18.42;;;14.10;71.50;;;;;;7366511;19;20493;-72
2023/05/08 03:57:58;;;;;;;21.25;17.17;;;14.10;71.30;;;;;;7368146;19;20011;-73
2023/05/08 04:00:39;;;;;;;20.00;17.35;;;14.10;71.50;;;;;;7371498;19;20015;-73
2023/05/08 04:03:20;;;;;;;18.88;16.42;;;14.10;71.60;;;;;;7373999;19;20014;-72
2023/05/08 04:05:59;;;;;;;19.30;16.90;;;14.20;71.70;;;;;;7373688;19;20018;-74
2023/05/08 04:08:36;;;;;;;19.88;16.55;;;14.10;71.70;;;;;;7374890;19;20021;-74
2023/05/08 04:11:13;;;;;;;19.83;16.38;;;14.20;71.80;;;;;;7370188;19;20529;-73
2023/05/08 04:13:51;;;;;;;20.80;17.20;;;14.10;71.90;;;;;;7396052;19;20014;-74
2023/05/08 04:16:25;;;;;;;19.65;14.40;;;14.10;71.80;;;;;;7374864;19;20014;-72
2023/05/08 04:19:01;;;;;;;18.17;14.55;;;14.10;72.00;;;;;;7374333;19;20090;-74
2023/05/08 04:21:35;;;;;;;18.85;16.02;;;14.10;72.10;;;;;;7371940;19;20036;-74
2023/05/08 04:24:14;;;;;;;16.95;15.15;;;14.20;72.40;;;;;;7374882;19;20018;-74
2023/05/08 04:26:45;;;;;;;17.15;14.38;;;14.20;72.30;;;;;;7373489;19;20021;-74
2023/05/08 04:29:16;;;;;;;15.57;13.88;;;14.20;72.00;;;;;;7374232;19;20020;-74
2023/05/08 04:31:46;;;;;;;16.70;12.95;;;14.20;72.00;;;;;;7394686;19;20026;-74
2023/05/08 04:34:18;;;;;;;15.98;13.30;;;14.20;71.90;;;;;;7372492;19;20011;-74
2023/05/08 04:36:49;;;;;;;16.02;13.98;;;14.10;71.80;;;;;;7373898;19;20093;-74
2023/05/08 04:39:21;;;;;;;16.80;13.60;;;14.10;71.20;;;;;;7373001;19;20340;-74
2023/05/08 04:41:53;;;;;;;16.92;13.25;;;14.10;69.50;;;;;;7372183;19;20484;-74
2023/05/08 04:44:23;;;;;;;15.55;13.18;;;14.20;70.10;;;;;;7373489;19;20038;-73
2023/05/08 04:46:53;;;;;;;12.95;11.48;;;14.20;69.70;;;;;;7394535;19;20024;-73
2023/05/08 04:49:23;;;;;;;14.93;12.07;;;14.20;69.70;;;;;;7371483;19;20499;-74
2023/05/08 04:51:53;;;;;;;13.85;12.32;;;14.30;69.80;;;;;;7371591;19;20024;-74
2023/05/08 04:54:25;;;;;;;13.88;12.27;;;14.30;69.50;;;;;;7372867;19;20411;-74
2023/05/08 04:56:55;;;;;;;13.65;11.88;;;14.30;69.70;;;;;;7373514;19;20017;-73
2023/05/08 04:59:26;;;;;;;14.00;11.77;;;14.40;69.70;;;;;;7370826;19;20295;-73
2023/05/08 05:01:56;;;;;;;14.35;12.18;;;14.40;69.50;;;;;;7393363;19;20019;-73
2023/05/08 05:04:26;;;;;;;15.13;12.50;;;14.40;69.10;;;;;;7371989;19;20565;-74
2023/05/08 05:06:56;;;;;;;13.80;12.07;;;14.40;68.90;;;;;;7371508;19;20014;-74
2023/05/08 05:09:29;;;;;;;13.60;12.20;;;14.40;67.40;;;;;;7369807;19;20010;-73
2023/05/08 05:11:59;;;;;;;16.85;12.73;;;14.40;67.50;;;;;;7371573;19;20012;-74
2023/05/08 05:14:29;;;;;;;14.85;12.43;;;14.50;67.70;;;;;;7372172;19;20047;-74
2023/05/08 05:16:59;;;;;;;15.57;12.05;;;14.40;67.70;;;;;;7394541;19;20339;-75
2023/05/08 05:19:29;;;;;;;13.88;11.73;;;14.40;67.30;;;;;;7370605;19;20090;-74
2023/05/08 05:21:58;;;;;;;15.32;12.55;;;14.40;67.80;;;;;;7370626;19;20006;-73
2023/05/08 05:24:31;;;;;;;14.05;12.55;;;14.40;68.00;;;;;;7371344;19;20470;-74
2023/05/08 05:27:01;;;;;;;15.40;12.05;;;14.40;67.70;;;;;;7372732;19;20006;-74
2023/05/08 05:29:31;;;;;;;13.70;11.85;;;14.40;67.60;;;;;;7370106;19;20007;-74
2023/05/08 05:32:01;;;;;;;15.88;12.68;;;14.50;67.80;;;;;;7391156;19;20021;-74
2023/05/08 05:34:31;;;;;;;12.52;11.23;;;14.50;67.40;;;;;;7370603;19;20007;-72
2023/05/08 05:37:01;;;;;;;12.63;11.43;;;14.50;67.10;;;;;;7371790;19;20014;-73
2023/05/08 05:39:34;;;;;;;12.52;11.23;;;14.40;66.80;;;;;;7369023;19;20039;-73
2023/05/08 05:42:04;;;;;;;13.97;12.43;;;14.50;66.40;;;;;;7369333;19;20089;-74
2023/05/08 05:44:34;;;;;;;12.60;11.30;;;14.50;67.00;;;;;;7369886;19;20208;-73
2023/05/08 05:47:04;;;;;;;14.35;12.18;;;14.40;66.30;;;;;;7383569;19;20035;-75
2023/05/08 05:49:34;;;;;;;13.95;11.90;;;14.50;66.40;;;;;;7394485;19;20089;-74
2023/05/08 05:52:05;;;;;;;12.90;11.60;;;14.50;65.80;;;;;;7370830;19;20002;-74
2023/05/08 05:54:37;;;;;;;13.73;12.23;;;14.40;66.00;;;;;;7370991;19;20010;-73
2023/05/08 05:57:07;;;;;;;15.30;11.65;;;14.50;65.80;;;;;;7370346;19;20014;-73
2023/05/08 05:59:37;;;;;;;17.98;12.68;;;14.50;65.20;;;;;;7370046;19;20021;-73
2023/05/08 06:02:09;;;;;;;14.65;12.30;;;14.50;65.80;;;;;;7370565;19;20086;-73
2023/05/08 06:04:39;;;;;;;15.18;12.43;;;14.60;66.00;;;;;;7392008;19;20011;-74
2023/05/08 06:07:09;;;;;;;15.68;12.82;;;14.60;66.10;;;;;;7369735;19;20025;-74
2023/05/08 06:09:41;;;;;;;13.77;12.43;;;14.50;65.70;;;;;;7368049;19;20491;-72
2023/05/08 06:12:12;;;;;;;13.18;11.77;;;14.50;65.00;;;;;;7369185;19;20735;-73
2023/05/08 06:14:42;;;;;;;15.82;13.43;;;14.60;65.50;;;;;;7369855;19;20069;-74
2023/05/08 06:17:11;;;;;;;16.40;13.73;;;14.50;65.10;;;;;;7371458;19;20039;-73
2023/05/08 06:19:41;;;;;;;14.68;12.40;;;14.50;65.20;;;;;;7390028;19;20015;-73
2023/05/08 06:22:11;;;;;;;16.77;12.85;;;14.50;65.20;;;;;;7367996;19;20007;-73
2023/05/08 06:24:44;;;;;;;14.85;13.15;;;14.50;65.40;;;;;;7369003;19;20474;-74
2023/05/08 06:27:14;;;;;;;17.48;14.45;;;14.50;66.10;;;;;;7368534;19;20017;-73
2023/05/08 06:29:44;;;;;;;14.57;13.07;;;14.60;66.90;;;;;;7367733;19;20100;-74
2023/05/08 06:32:13;;;;;;;15.07;13.05;;;14.50;64.80;;;;;;7370143;19;20017;-74
2023/05/08 06:34:43;;;;;;;15.02;13.48;;;14.50;65.90;;;;;;7391054;19;20041;-73
2023/05/08 06:37:13;;;;;;;16.98;13.02;;;14.50;66.10;;;;;;7370059;19;20014;-74
2023/05/08 06:39:46;;;;;;;15.43;13.63;;;14.40;65.70;;;;;;7367190;19;20079;-74
2023/05/08 06:42:21;;;;;;;16.77;14.43;;;14.50;66.50;;;;;;7369972;19;20540;-75
2023/05/08 06:44:52;;;;;;;15.98;14.23;;;14.50;67.00;;;;;;7369384;19;20089;-73
2023/05/08 06:47:22;;;;;;;17.48;14.82;;;14.50;67.00;;;;;;7369708;19;20006;-74
2023/05/08 06:49:52;;;;;;;17.85;14.43;;;14.50;67.30;;;;;;7388741;19;20503;-74
2023/05/08 06:52:24;;;;;;;17.15;15.02;;;14.50;68.10;;;;;;7366374;19;20034;-74
2023/05/08 06:54:57;;;;;;;17.25;13.50;;;14.50;68.10;;;;;;7368348;19;20407;-73
2023/05/08 06:57:29;;;;;;;16.50;14.73;;;14.50;68.30;;;;;;7368668;19;20018;-72
2023/05/08 06:59:59;;;;;;;17.92;16.08;;;14.50;69.40;;;;;;7365913;19;20019;-72
2023/05/08 07:02:28;;;;;;;21.13;17.58;;;14.50;69.40;;;;;;7368357;19;20733;-72
2023/05/08 07:04:58;;;;;;;21.25;17.67;;;14.60;69.80;;;;;;7389314;19;20013;-71
2023/05/08 07:07:28;;;;;;;19.27;17.20;;;14.60;70.00;;;;;;7367780;19;20027;-73
2023/05/08 07:10:01;;;;;;;21.73;18.25;;;14.60;70.20;;;;;;7364987;19;20038;-73
2023/05/08 07:12:31;;;;;;;22.98;15.63;;;14.60;70.10;;;;;;7366740;19;20014;-74
2023/05/08 07:15:01;;;;;;;36.25;16.92;;;14.60;70.00;;;;;;7367797;19;20502;-71
2023/05/08 07:17:46;;;;;;;27.45;16.85;;;14.60;70.10;;;;;;7367848;19;20013;-72
2023/05/08 07:20:16;;;;;;;20.05;15.27;;;14.60;70.00;;;;;;7365136;19;20010;-72
2023/05/08 07:22:46;;;;;;;18.40;14.80;;;14.60;69.50;;;;;;7389388;19;20014;-71
2023/05/08 07:25:19;;;;;;;18.85;14.45;;;14.60;69.70;;;;;;7367111;19;20382;-71
2023/05/08 07:27:49;;;;;;;18.23;14.73;;;14.70;69.30;;;;;;7366444;19;20106;-71
2023/05/08 07:30:19;;;;;;;19.95;15.68;;;14.80;69.90;;;;;;7364714;19;20365;-71
2023/05/08 07:32:49;;;;;;;17.60;14.65;;;14.80;69.90;;;;;;7370185;19;20115;-72
2023/05/08 07:35:19;;;;;;;15.18;13.57;;;14.80;69.10;;;;;;7375384;19;20006;-72
2023/05/08 07:37:49;;;;;;;16.08;13.82;;;14.80;68.70;;;;;;7397680;19;20494;-72
2023/05/08 07:40:21;;;;;;;14.98;13.07;;;14.80;68.70;;;;;;7371015;19;20006;-72
2023/05/08 07:42:51;;;;;;;17.05;13.35;;;14.90;67.50;;;;;;7374048;19;20024;-73
2023/05/08 07:45:21;;;;;;;16.02;13.27;;;14.90;64.80;;;;;;7373352;19;20491;-72
2023/05/08 07:47:52;;;;;;;15.85;13.88;;;14.90;66.30;;;;;;7372050;19;20086;-72
2023/05/08 07:50:23;;;;;;;16.48;13.85;;;15.20;67.30;;;;;;7370417;19;20387;-72
2023/05/08 07:52:53;;;;;;;14.40;12.85;;;15.20;65.30;;;;;;7397058;19;20018;-72
2023/05/08 07:55:26;;;;;;;18.52;13.32;;;15.40;66.40;;;;;;7374104;19;20002;-73
2023/05/08 07:57:55;;;;;;;15.32;11.90;;;15.40;65.60;;;;;;7373791;19;20002;-72
2023/05/08 08:00:26;;;;;;;16.58;12.57;;;15.40;63.40;;;;;;7370575;19;20006;-73
2023/05/08 08:02:56;;;;;;;13.55;10.93;;;15.40;61.10;;;;;;7374095;19;20083;-72
2023/05/08 08:05:26;;;;;;;11.38;10.10;;;15.50;58.50;;;;;;7372816;19;20370;-72
2023/05/08 08:07:56;;;;;;;10.32;9.18;;;15.50;57.20;;;;;;7395725;19;20003;-71
2023/05/08 08:10:30;;;;;;;11.60;10.40;;;15.60;54.20;;;;;;7370161;19;20708;-71
2023/05/08 08:13:00;;;;;;;13.63;11.13;;;15.80;53.60;;;;;;7373582;19;20017;-72
2023/05/08 08:15:30;;;;;;;12.20;9.73;;;16.10;52.90;;;;;;7374047;19;20066;-71
2023/05/08 08:18:00;;;;;;;10.63;9.27;;;16.20;46.70;;;;;;7374602;19;20011;-72
2023/05/08 08:20:30;;;;;;;12.43;9.38;;;16.40;44.30;;;;;;7370422;19;20022;-72
2023/05/08 08:23:00;;;;;;;9.60;8.60;;;16.40;43.20;;;;;;7396774;19;20420;-71
2023/05/08 08:25:33;;;;;;;9.50;8.20;;;16.70;45.50;;;;;;7373648;19;20388;-73
2023/05/08 08:28:03;;;;;;;11.32;9.15;;;16.60;40.00;;;;;;7372710;19;20392;-71
2023/05/08 08:30:32;;;;;;;10.48;8.50;;;16.60;39.60;;;;;;7370578;19;20427;-72
2023/05/08 08:33:02;;;;;;;9.15;7.80;;;16.30;33.10;;;;;;7374131;19;20033;-72
2023/05/08 08:35:33;;;;;;;10.88;8.23;;;16.40;34.90;;;;;;7373046;19;20094;-72
2023/05/08 08:38:03;;;;;;;10.77;8.65;;;16.50;33.30;;;;;;7392282;19;20031;-70
2023/05/08 08:40:40;;;;;;;9.68;8.68;;;16.70;31.20;;;;;;7390500;19;20014;-72
2023/05/08 08:43:11;;;;;;;10.40;8.02;;;16.80;28.90;;;;;;7371737;19;20014;-71
2023/05/08 08:45:41;;;;;;;11.57;8.10;;;16.50;27.50;;;;;;7369303;19;20010;-71
2023/05/08 08:48:13;;;;;;;10.55;7.95;;;16.60;28.30;;;;;;7372600;19;20010;-73
2023/05/08 08:50:45;;;;;;;9.80;8.77;;;16.70;28.00;;;;;;7367466;19;20010;-73
2023/05/08 08:53:22;;;;;;;8.80;7.90;;;16.60;28.70;;;;;;7373554;19;20010;-73
2023/05/08 08:55:59;;;;;;;9.52;8.50;;;16.60;29.10;;;;;;7393968;19;20015;-73
2023/05/08 08:58:34;;;;;;;9.88;8.60;;;16.50;26.90;;;;;;7373234;19;20070;-73
2023/05/08 09:01:09;;;;;;;9.88;8.45;;;16.60;28.30;;;;;;7369072;19;20010;-70
2023/05/08 09:03:39;;;;;;;10.75;8.48;;;16.70;30.90;;;;;;7374594;19;20014;-71
2023/05/08 09:06:09;;;;;;;12.10;8.77;;;16.60;25.40;;;;;;7372387;19;20010;-73
2023/05/08 09:08:39;;;;;;;12.38;9.27;;;16.80;27.90;;;;;;7371284;19;20025;-72
2023/05/08 09:11:12;;;;;;;12.05;9.45;;;16.60;24.00;;;;;;7367516;19;20691;-72
2023/05/08 09:13:42;;;;;;;11.15;9.00;;;16.80;24.60;;;;;;7394627;19;20010;-72
2023/05/08 09:16:12;;;;;;;10.15;9.00;;;16.70;23.00;;;;;;7372615;19;20128;-73
2023/05/08 09:18:42;;;;;;;11.73;9.35;;;16.80;20.60;;;;;;7372946;19;20007;-73
2023/05/08 09:21:12;;;;;;;11.45;8.45;;;16.90;20.80;;;;;;7368524;19;20091;-73
2023/05/08 09:23:57;;;;;;;11.00;9.50;;;16.90;22.00;;;;;;7371868;19;20010;-73
2023/05/08 09:26:35;;;;;;;11.38;8.77;;;17.00;20.50;;;;;;7371536;19;20078;-73
2023/05/08 09:29:15;;;;;;;9.57;8.57;;;17.30;19.20;;;;;;7377771;19;20018;-73
2023/05/08 09:31:47;;;;;;;10.43;9.25;;;17.30;16.40;;;;;;7392971;19;20018;-73
2023/05/08 09:34:26;;;;;;;10.65;8.98;;;17.30;15.20;;;;;;7371259;19;20011;-73
2023/05/08 09:36:57;;;;;;;11.57;9.65;;;17.20;15.60;;;;;;7371672;19;20074;-72
2023/05/08 09:39:28;;;;;;;13.35;8.98;;;17.20;16.40;;;;;;7368530;19;20026;-73
2023/05/08 09:42:05;;;;;;;11.00;9.15;;;17.30;16.40;;;;;;7370384;19;20021;-74
2023/05/08 09:44:46;;;;;;;10.60;8.77;;;17.50;16.80;;;;;;7369221;19;20462;-73
2023/05/08 09:47:17;;;;;;;10.23;7.93;;;17.50;16.60;;;;;;7372228;19;20041;-73
2023/05/08 09:49:59;;;;;;;8.55;7.68;;;17.50;15.20;;;;;;7388446;19;20467;-73
2023/05/08 09:52:29;;;;;;;9.05;7.32;;;17.40;11.80;;;;;;7371605;19;20470;-73
2023/05/08 09:55:00;;;;;;;8.68;6.95;;;17.70;10.50;;;;;;7369095;19;20011;-72
2023/05/08 09:57:35;;;;;;;10.40;7.43;;;17.50;7.30;;;;;;7369130;19;20010;-73
2023/05/08 10:00:07;;;;;;;;;;;17.70;11.90;;;;;;7368077;19;20485;-73
2023/05/08 10:02:38;;;;;;;8.93;7.05;;;18.00;7.80;;;;;;7370483;19;19982;-74
2023/05/08 10:05:25;;;;;;;10.45;7.65;;;17.90;8.30;;;;;;7370275;19;20088;-73
2023/05/08 10:07:55;;;;;;;10.60;7.50;;;17.80;9.80;;;;;;7393181;19;20017;-73
2023/05/08 10:10:29;;;;;;;12.88;9.38;;;18.10;11.90;;;;;;7365663;19;20022;-73
2023/05/08 10:13:01;;;;;;;18.42;12.50;;;18.10;10.30;;;;;;7369904;19;20077;-73
2023/05/08 10:15:32;;;;;;;11.90;8.52;;;18.20;9.70;;;;;;7369697;19;20504;-74
2023/05/08 10:18:06;;;;;;;11.70;9.40;;;18.10;12.80;;;;;;7369046;19;20021;-73
2023/05/08 10:20:40;;;;;;;13.55;10.07;;;17.70;14.90;;;;;;7366333;19;20478;-72
2023/05/08 10:23:16;;;;;;;12.85;9.35;;;17.70;16.30;;;;;;7370650;19;20013;-73
2023/05/08 10:25:49;;;;;;;11.75;9.82;;;17.80;18.20;;;;;;7391701;19;20010;-73
2023/05/08 10:28:30;;;;;;;14.02;11.43;;;17.90;17.60;;;;;;7369730;19;20038;-73
2023/05/08 10:31:02;;;;;;;13.90;10.43;;;17.80;15.20;;;;;;7366631;19;20014;-74
2023/05/08 10:33:33;;;;;;;16.42;11.70;;;17.20;19.90;;;;;;7369015;19;20007;-73
2023/05/08 10:36:03;;;;;;;15.20;12.25;;;17.50;23.30;;;;;;7368908;19;20010;-73
2023/05/08 10:38:35;;;;;;;13.88;10.98;;;17.60;21.50;;;;;;7369221;19;20010;-73
2023/05/08 10:41:05;;;;;;;13.65;12.00;;;17.60;20.30;;;;;;7374621;19;20015;-72
2023/05/08 10:43:38;;;;;;;16.27;11.85;;;17.70;19.20;;;;;;7390501;19;20010;-73
2023/05/08 10:46:14;;;;;;;13.80;11.63;;;18.00;18.80;;;;;;7368591;19;20010;-73
2023/05/08 10:48:55;;;;;;;12.60;11.07;;;18.20;18.10;;;;;;7367301;19;20019;-75
2023/05/08 10:51:34;;;;;;;16.42;10.90;;;18.30;14.80;;;;;;7366753;19;20013;-73
2023/05/08 10:54:10;;;;;;;17.20;12.02;;;18.10;15.10;;;;;;7368634;19;20031;-74
2023/05/08 10:56:40;;;;;;;14.73;11.60;;;18.10;19.90;;;;;;7369852;19;20363;-74
2023/05/08 10:59:20;;;;;;;11.80;10.55;;;17.90;18.00;;;;;;7368764;19;20010;-75
2023/05/08 11:01:50;;;;;;;14.27;11.65;;;17.40;18.90;;;;;;7389852;19;20010;-73
2023/05/08 11:04:24;;;;;;;14.25;11.95;;;17.00;19.80;;;;;;7369083;19;20011;-74
2023/05/08 11:06:57;;;;;;;16.25;12.43;;;17.40;23.30;;;;;;7367711;19;20393;-74
2023/05/08 11:09:30;;;;;;;13.02;11.57;;;17.50;22.80;;;;;;7365615;19;20014;-74
2023/05/08 11:12:09;;;;;;;12.50;11.20;;;17.70;22.90;;;;;;7367070;19;20461;-74
2023/05/08 11:14:44;;;;;;;15.23;11.93;;;17.50;17.70;;;;;;7368477;19;20013;-73
2023/05/08 11:17:14;;;;;;;15.38;12.85;;;17.50;17.80;;;;;;7368977;19;20031;-74
2023/05/08 11:19:57;;;;;;;15.80;13.30;;;17.80;19.70;;;;;;7386562;19;20022;-75
2023/05/08 11:22:29;;;;;;;16.98;12.85;;;17.80;17.60;;;;;;7369022;19;20011;-73
2023/05/08 11:25:02;;;;;;;19.58;11.65;;;18.10;16.40;;;;;;7367864;19;20014;-73
2023/05/08 11:28:20;;;;;;;14.23;11.95;;;17.50;14.40;;;;;;7368673;19;20046;-73
2023/05/08 11:30:56;;;;;;;14.18;11.38;;;17.70;19.00;;;;;;7364923;19;20031;-74
2023/05/08 11:33:31;;;;;;;13.25;10.48;;;17.50;14.90;;;;;;7366358;19;20017;-73
2023/05/08 11:36:13;;;;;;;13.55;10.85;;;17.70;16.70;;;;;;7368810;19;20021;-72
2023/05/08 11:38:43;;;;;;;14.18;11.68;;;18.10;17.40;;;;;;7368176;19;20007;-73
2023/05/08 11:41:23;;;;;;;11.40;10.00;;;17.90;13.20;;;;;;7363321;19;20078;-73
2023/05/08 11:44:19;;;;;;;16.80;11.50;;;18.20;14.60;;;;;;7388883;19;20011;-73
2023/05/08 11:46:57;;;;;;;13.18;11.18;;;18.10;18.70;;;;;;7368140;19;20466;-73
2023/05/08 11:49:28;;;;;;;14.18;11.88;;;17.90;21.20;;;;;;7365074;19;20355;-73
2023/05/08 11:52:02;;;;;;;16.67;12.98;;;17.60;20.10;;;;;;7366724;19;20081;-72
2023/05/08 11:54:33;;;;;;;19.50;13.30;;;17.50;23.70;;;;;;7368168;19;20414;-73
2023/05/08 11:57:03;;;;;;;15.60;13.68;;;17.70;24.70;;;;;;7367091;19;20018;-72
2023/05/08 11:59:37;;;;;;;15.27;12.68;;;17.60;23.80;;;;;;7364817;19;20010;-72
2023/05/08 12:02:10;;;;;;;15.82;13.70;;;17.30;27.30;;;;;;7367455;19;20052;-73
2023/05/08 12:04:47;;;;;;;16.75;13.82;;;17.30;27.90;;;;;;7388802;19;20075;-72
2023/05/08 12:07:17;;;;;;;16.75;14.85;;;17.20;30.50;;;;;;7367404;19;20084;-72
2023/05/08 12:09:48;;;;;;;18.95;15.90;;;17.00;30.90;;;;;;7364452;19;20509;-71
2023/05/08 12:12:18;;;;;;;18.58;15.07;;;17.20;31.80;;;;;;7363263;19;20450;-71
2023/05/08 12:14:51;;;;;;;18.80;14.75;;;17.20;31.30;;;;;;7365808;19;20087;-72
2023/05/08 12:17:23;;;;;;;19.08;14.82;;;17.10;30.30;;;;;;7367790;19;20006;-72
2023/05/08 12:20:02;;;;;;;20.95;15.93;;;17.00;33.90;;;;;;7388958;19;20041;-72
2023/05/08 12:22:33;;;;;;;19.35;15.93;;;16.90;35.40;;;;;;7373444;19;20021;-73
2023/05/08 12:25:05;;;;;;;17.92;15.45;;;16.70;32.90;;;;;;7372273;19;20007;-72
2023/05/08 12:27:35;;;;;;;22.95;16.77;;;16.90;34.00;;;;;;7372538;19;20503;-73
2023/05/08 12:30:09;;;;;;;20.65;17.50;;;16.70;36.20;;;;;;7371182;19;20003;-73
2023/05/08 12:32:43;;;;;;;22.65;18.10;;;16.60;36.60;;;;;;7373362;19;20513;-72
2023/05/08 12:35:14;;;;;;;20.67;16.75;;;16.40;39.10;;;;;;7373576;19;20010;-72
2023/05/08 12:37:47;;;;;;;24.13;18.40;;;16.60;43.00;;;;;;7396617;19;20478;-73
2023/05/08 12:40:28;;;;;;;24.92;20.73;;;16.40;47.10;;;;;;7368704;19;20028;-73
2023/05/08 12:42:58;;;;;;;25.73;20.85;;;16.50;50.70;;;;;;7371995;19;20010;-71
2023/05/08 12:45:29;;;;;;;30.58;21.70;;;16.50;52.30;;;;;;7373083;19;20035;-72
2023/05/08 12:48:06;;;;;;;27.17;21.38;;;16.50;53.00;;;;;;7372564;19;20217;-72
2023/05/08 12:50:37;;;;;;;26.55;20.70;;;16.40;53.80;;;;;;7369148;19;20483;-71
2023/05/08 12:53:08;;;;;;;27.55;21.63;;;16.30;52.90;;;;;;7373612;19;20003;-72
2023/05/08 12:55:42;;;;;;;28.23;22.65;;;16.30;55.10;;;;;;7394711;19;20420;-72
2023/05/08 12:58:14;;;;;;;28.57;21.40;;;16.30;57.10;;;;;;7374100;19;20605;-72
2023/05/08 13:00:46;;;;;;;30.52;22.75;;;16.30;57.90;;;;;;7371072;19;20487;-74